Time;durP1;ratioP1;P1;durP2;ratioP2;P2;SDS_P1;SDS_P2;PMS_P1;PMS_P2;Temp;Humidity;BMP_temperature;BMP_pressure;BME280_temperature;BME280_humidity;BME280_pressure;Samples;Min_cycle;Max_cycle;Signal;HPM_P1;HPM_P2
2023/05/29 00:03:43;;;;;;;8.57;6.63;;;;;;;;;;10467744;28;20486;-56
2023/05/29 00:08:43;;;;;;;11.43;7.00;;;;;;;;;;10476698;28;20426;-57
2023/05/29 00:13:44;;;;;;;10.05;6.47;;;;;;;;;;10468992;28;20387;-58
2023/05/29 00:18:46;;;;;;;10.38;6.60;;;;;;;;;;10472674;28;20028;-57
2023/05/29 00:23:47;;;;;;;8.95;6.07;;;;;;;;;;10481476;28;20373;-57
2023/05/29 00:28:48;;;;;;;8.50;5.97;;;;;;;;;;10473111;28;20043;-56
2023/05/29 00:33:48;;;;;;;9.07;5.78;;;;;;;;;;10462596;28;20357;-57
2023/05/29 00:38:49;;;;;;;8.40;6.03;;;;;;;;;;10469148;28;20029;-57
2023/05/29 00:43:49;;;;;;;12.27;6.53;;;;;;;;;;10462818;28;20053;-58
2023/05/29 00:48:50;;;;;;;8.07;6.18;;;;;;;;;;10471550;28;20025;-57
2023/05/29 00:53:53;;;;;;;6.28;5.30;;;;;;;;;;10490033;28;20028;-57
2023/05/29 00:58:53;;;;;;;8.85;6.10;;;;;;;;;;10467346;28;20043;-57
2023/05/29 01:03:57;;;;;;;7.32;5.65;;;;;;;;;;10452752;28;20025;-55
2023/05/29 01:08:57;;;;;;;12.20;5.93;;;;;;;;;;10449784;28;20103;-54
2023/05/29 01:14:05;;;;;;;7.43;5.70;;;;;;;;;;10459889;28;20033;-55
2023/05/29 01:19:45;;;;;;;7.22;5.88;;;;;;;;;;10461189;28;20028;-57
2023/05/29 01:24:57;;;;;;;9.90;6.25;;;;;;;;;;10482705;28;20025;-57
2023/05/29 01:29:58;;;;;;;9.30;6.68;;;;;;;;;;10475063;28;20024;-57
2023/05/29 01:34:59;;;;;;;7.63;6.20;;;;;;;;;;10444549;28;20377;-57
2023/05/29 01:40:00;;;;;;;9.15;6.13;;;;;;;;;;10459324;28;20035;-57
2023/05/29 01:45:01;;;;;;;7.68;5.93;;;;;;;;;;10450517;28;20411;-56
2023/05/29 01:50:04;;;;;;;8.38;5.53;;;;;;;;;;10464988;28;20021;-57
2023/05/29 01:55:05;;;;;;;9.45;5.85;;;;;;;;;;10467966;28;20029;-58
2023/05/29 02:00:08;;;;;;;10.25;6.47;;;;;;;;;;10481813;28;20031;-57
2023/05/29 02:05:10;;;;;;;8.30;5.80;;;;;;;;;;10429529;28;20031;-57
2023/05/29 02:10:11;;;;;;;9.98;5.93;;;;;;;;;;10470030;28;20029;-57
2023/05/29 02:15:11;;;;;;;8.55;5.65;;;;;;;;;;10491448;28;20502;-62
2023/05/29 02:20:12;;;;;;;9.82;5.82;;;;;;;;;;10476445;28;20040;-56
2023/05/29 02:25:12;;;;;;;8.40;5.85;;;;;;;;;;10507985;28;20024;-55
2023/05/29 02:30:13;;;;;;;8.68;6.10;;;;;;;;;;10496465;28;20020;-57
2023/05/29 02:35:15;;;;;;;8.40;5.05;;;;;;;;;;10499558;28;20450;-54
2023/05/29 02:40:16;;;;;;;7.88;6.05;;;;;;;;;;10490718;28;20024;-52
2023/05/29 02:45:17;;;;;;;7.05;5.20;;;;;;;;;;10490302;28;20040;-54
2023/05/29 02:50:18;;;;;;;7.85;5.40;;;;;;;;;;10490633;28;20534;-55
2023/05/29 02:55:18;;;;;;;7.97;6.03;;;;;;;;;;10491203;28;20032;-54
2023/05/29 03:00:19;;;;;;;8.07;5.82;;;;;;;;;;10491139;28;20020;-54
2023/05/29 03:05:21;;;;;;;7.45;5.18;;;;;;;;;;10484435;28;20419;-53
2023/05/29 03:10:21;;;;;;;8.45;5.85;;;;;;;;;;10491820;28;20025;-57
2023/05/29 03:15:22;;;;;;;10.90;5.75;;;;;;;;;;10480668;28;20029;-56
2023/05/29 03:20:23;;;;;;;10.50;5.47;;;;;;;;;;10490834;28;20031;-56
2023/05/29 03:25:24;;;;;;;6.72;5.47;;;;;;;;;;10497541;28;20108;-57
2023/05/29 03:30:24;;;;;;;7.97;5.07;;;;;;;;;;10497796;28;20027;-54
2023/05/29 03:35:25;;;;;;;8.77;5.35;;;;;;;;;;10498129;28;20027;-59
2023/05/29 03:40:25;;;;;;;6.18;5.10;;;;;;;;;;10498488;28;20031;-56
2023/05/29 03:45:26;;;;;;;6.80;5.25;;;;;;;;;;10497502;28;20041;-56
2023/05/29 03:50:27;;;;;;;9.82;5.30;;;;;;;;;;10497533;28;20032;-56
2023/05/29 03:55:28;;;;;;;7.45;5.63;;;;;;;;;;10499195;28;20026;-57
2023/05/29 04:00:28;;;;;;;6.00;4.95;;;;;;;;;;10497762;28;20028;-54
2023/05/29 04:05:29;;;;;;;8.98;5.80;;;;;;;;;;10496920;28;20024;-55
2023/05/29 04:10:33;;;;;;;10.07;5.13;;;;;;;;;;10497399;28;20031;-54
2023/05/29 04:15:34;;;;;;;16.23;5.72;;;;;;;;;;10498462;28;20025;-54
2023/05/29 04:20:35;;;;;;;11.13;5.65;;;;;;;;;;10495965;28;20451;-55
2023/05/29 04:25:36;;;;;;;9.13;5.47;;;;;;;;;;10496835;28;20083;-57
2023/05/29 04:30:36;;;;;;;8.15;5.13;;;;;;;;;;10496265;28;20094;-56
2023/05/29 04:35:37;;;;;;;9.82;5.18;;;;;;;;;;10500373;28;20078;-56
2023/05/29 04:40:37;;;;;;;7.93;5.50;;;;;;;;;;10495875;28;20032;-53
2023/05/29 04:45:38;;;;;;;7.28;5.05;;;;;;;;;;10495036;28;20044;-54
2023/05/29 04:50:39;;;;;;;12.73;5.80;;;;;;;;;;10494423;28;20017;-56
2023/05/29 04:55:40;;;;;;;7.43;5.35;;;;;;;;;;10491272;28;20054;-55
2023/05/29 05:00:40;;;;;;;8.05;5.13;;;;;;;;;;10495300;28;20028;-54
2023/05/29 05:05:41;;;;;;;11.65;5.38;;;;;;;;;;10475318;28;20021;-55
2023/05/29 05:10:41;;;;;;;8.57;5.55;;;;;;;;;;10486780;28;20052;-54
2023/05/29 05:15:42;;;;;;;9.93;5.70;;;;;;;;;;10480825;28;20534;-53
2023/05/29 05:20:43;;;;;;;9.00;5.20;;;;;;;;;;10474261;28;20404;-56
2023/05/29 05:25:43;;;;;;;8.32;5.55;;;;;;;;;;10482765;28;20029;-61
2023/05/29 05:30:44;;;;;;;6.72;4.90;;;;;;;;;;10476470;28;20040;-58
2023/05/29 05:35:45;;;;;;;11.27;5.88;;;;;;;;;;10497978;28;20086;-54
2023/05/29 05:40:45;;;;;;;7.30;5.50;;;;;;;;;;10490783;28;20031;-54
2023/05/29 05:45:46;;;;;;;14.63;5.88;;;;;;;;;;10470326;28;20063;-53
2023/05/29 05:50:47;;;;;;;6.18;5.00;;;;;;;;;;10484173;28;20028;-57
2023/05/29 05:55:48;;;;;;;8.98;5.28;;;;;;;;;;10478241;28;20059;-55
2023/05/29 06:00:52;;;;;;;8.77;5.50;;;;;;;;;;10478778;28;20033;-54
2023/05/29 06:05:54;;;;;;;6.38;4.30;;;;;;;;;;10473393;28;20039;-51
2023/05/29 06:10:54;;;;;;;10.48;4.82;;;;;;;;;;10474343;28;20039;-53
2023/05/29 06:15:55;;;;;;;16.52;5.10;;;;;;;;;;10484523;28;20040;-54
2023/05/29 06:20:56;;;;;;;11.05;5.38;;;;;;;;;;10476782;28;20033;-53
2023/05/29 06:25:57;;;;;;;9.43;5.90;;;;;;;;;;10487397;28;20032;-55
2023/05/29 06:30:57;;;;;;;11.10;5.13;;;;;;;;;;10490600;28;20040;-59
2023/05/29 06:35:58;;;;;;;8.95;5.35;;;;;;;;;;10493099;28;20372;-51
2023/05/29 06:40:58;;;;;;;9.77;5.38;;;;;;;;;;10487544;28;20036;-52
2023/05/29 06:45:59;;;;;;;19.13;5.55;;;;;;;;;;10488233;28;20072;-52
2023/05/29 06:50:59;;;;;;;11.38;4.85;;;;;;;;;;10491569;28;20028;-53
2023/05/29 06:56:00;;;;;;;7.22;5.10;;;;;;;;;;10491416;28;20157;-51
2023/05/29 07:01:01;;;;;;;10.85;4.82;;;;;;;;;;10490161;28;20494;-51
2023/05/29 07:06:03;;;;;;;7.15;4.93;;;;;;;;;;10491504;28;20024;-56
2023/05/29 07:11:03;;;;;;;7.47;5.18;;;;;;;;;;10491925;28;20025;-51
2023/05/29 07:16:04;;;;;;;11.00;5.45;;;;;;;;;;10489788;28;20016;-51
2023/05/29 07:21:06;;;;;;;26.27;5.40;;;;;;;;;;10491025;28;20028;-48
2023/05/29 07:26:07;;;;;;;15.07;5.45;;;;;;;;;;10490872;28;20036;-51
2023/05/29 07:31:07;;;;;;;14.82;5.30;;;;;;;;;;10495292;28;20075;-55
2023/05/29 07:36:08;;;;;;;21.20;5.93;;;;;;;;;;10490164;28;20032;-55
2023/05/29 07:41:08;;;;;;;11.48;5.40;;;;;;;;;;10490677;28;20036;-60
2023/05/29 07:46:09;;;;;;;13.95;5.68;;;;;;;;;;10446263;28;20045;-58
2023/05/29 07:51:10;;;;;;;17.83;5.72;;;;;;;;;;10446613;28;20483;-59
2023/05/29 07:56:10;;;;;;;11.32;4.88;;;;;;;;;;10447320;28;20033;-62
2023/05/29 08:01:12;;;;;;;14.40;5.22;;;;;;;;;;10449240;28;20110;-51
2023/05/29 08:06:13;;;;;;;9.73;5.10;;;;;;;;;;10450180;28;20021;-60
2023/05/29 08:11:14;;;;;;;9.27;4.97;;;;;;;;;;10456199;28;20021;-56
2023/05/29 08:16:15;;;;;;;10.68;4.95;;;;;;;;;;10454846;28;20025;-60
2023/05/29 08:21:16;;;;;;;10.32;5.20;;;;;;;;;;10456079;28;20476;-58
2023/05/29 08:26:16;;;;;;;10.25;4.95;;;;;;;;;;10455219;28;20032;-54
2023/05/29 08:31:17;;;;;;;8.50;5.15;;;;;;;;;;10460110;28;20021;-55
2023/05/29 08:36:20;;;;;;;9.25;4.68;;;;;;;;;;10448853;28;20464;-51
2023/05/29 08:41:51;;;;;;;6.05;4.70;;;;;;;;;;10454994;28;20033;-48
2023/05/29 08:46:55;;;;;;;9.38;4.45;;;;;;;;;;10443567;28;20136;-52
2023/05/29 08:52:18;;;;;;;8.20;4.65;;;;;;;;;;10452656;28;20068;-61
2023/05/29 08:57:20;;;;;;;9.90;5.00;;;;;;;;;;10453972;28;20411;-52
2023/05/29 09:02:21;;;;;;;7.70;5.00;;;;;;;;;;10453972;28;20031;-58
2023/05/29 09:07:22;;;;;;;12.25;4.93;;;;;;;;;;10454533;28;20365;-53
2023/05/29 09:12:23;;;;;;;9.95;5.20;;;;;;;;;;10453615;28;20527;-55
2023/05/29 09:17:23;;;;;;;6.13;4.70;;;;;;;;;;10452689;28;20024;-62
2023/05/29 09:22:24;;;;;;;9.02;5.00;;;;;;;;;;10452707;28;20036;-56
2023/05/29 09:27:26;;;;;;;10.68;5.10;;;;;;;;;;10452300;28;20385;-53
2023/05/29 09:32:33;;;;;;;9.40;4.63;;;;;;;;;;10457494;28;20045;-57
2023/05/29 09:37:35;;;;;;;8.77;4.78;;;;;;;;;;10452587;28;20420;-51
2023/05/29 09:42:37;;;;;;;9.25;4.53;;;;;;;;;;10455823;28;20037;-54
2023/05/29 09:47:38;;;;;;;11.00;5.50;;;;;;;;;;10491940;28;20388;-61
2023/05/29 09:52:39;;;;;;;9.68;5.30;;;;;;;;;;10492853;28;20115;-51
2023/05/29 09:57:41;;;;;;;7.45;4.45;;;;;;;;;;10493671;28;20380;-51
2023/05/29 10:02:41;;;;;;;11.13;4.70;;;;;;;;;;10475911;28;20027;-52
2023/05/29 10:07:52;;;;;;;7.22;4.90;;;;;;;;;;10491315;28;20021;-52
2023/05/29 10:12:54;;;;;;;10.00;4.65;;;;;;;;;;10476949;28;20096;-56
2023/05/29 10:18:04;;;;;;;7.10;5.25;;;;;;;;;;10468619;28;20032;-51
2023/05/29 10:23:07;;;;;;;10.35;4.30;;;;;;;;;;10468325;28;20032;-53
2023/05/29 10:28:08;;;;;;;9.25;5.00;;;;;;;;;;10472335;28;20105;-51
2023/05/29 10:33:14;;;;;;;5.95;4.53;;;;;;;;;;10495463;28;20040;-56
2023/05/29 10:38:18;;;;;;;8.60;5.07;;;;;;;;;;10466994;28;20032;-52
2023/05/29 10:43:33;;;;;;;8.63;4.93;;;;;;;;;;10473071;28;20110;-59
2023/05/29 10:48:40;;;;;;;5.68;4.47;;;;;;;;;;10490326;28;20152;-56
2023/05/29 10:53:41;;;;;;;8.77;4.43;;;;;;;;;;10478808;28;20028;-53
2023/05/29 10:58:42;;;;;;;5.82;4.47;;;;;;;;;;10491170;28;20027;-49
2023/05/29 11:03:43;;;;;;;11.93;5.03;;;;;;;;;;10490910;28;20050;-52
2023/05/29 11:08:53;;;;;;;7.70;5.03;;;;;;;;;;10491341;28;20529;-59
2023/05/29 11:13:56;;;;;;;11.27;4.57;;;;;;;;;;10490877;28;20090;-52
2023/05/29 11:18:58;;;;;;;4.85;4.15;;;;;;;;;;10491478;28;20048;-52
2023/05/29 11:24:07;;;;;;;6.45;4.50;;;;;;;;;;10491064;28;20060;-57
2023/05/29 11:29:10;;;;;;;6.55;4.57;;;;;;;;;;10484106;28;20040;-49
2023/05/29 11:34:15;;;;;;;6.40;4.57;;;;;;;;;;10495887;28;20037;-52
2023/05/29 11:39:15;;;;;;;6.53;4.85;;;;;;;;;;10490881;28;20040;-52
2023/05/29 11:44:16;;;;;;;6.72;4.38;;;;;;;;;;10486246;28;20500;-54
2023/05/29 11:49:33;;;;;;;6.63;4.82;;;;;;;;;;10492135;28;20025;-59
2023/05/29 11:54:36;;;;;;;6.82;4.65;;;;;;;;;;10497273;28;20021;-52
2023/05/29 11:59:38;;;;;;;8.50;4.50;;;;;;;;;;10492872;28;20036;-58
2023/05/29 12:04:39;;;;;;;9.45;4.60;;;;;;;;;;10497653;28;20033;-62
2023/05/29 12:09:40;;;;;;;7.43;4.97;;;;;;;;;;10491691;28;20028;-51
2023/05/29 12:14:40;;;;;;;8.68;4.60;;;;;;;;;;10496901;28;20472;-56
2023/05/29 12:19:41;;;;;;;8.95;4.32;;;;;;;;;;10494430;28;20029;-60
2023/05/29 12:24:41;;;;;;;8.38;4.47;;;;;;;;;;10479069;28;20471;-51
2023/05/29 12:30:03;;;;;;;7.65;4.80;;;;;;;;;;10493096;28;20021;-54
2023/05/29 12:35:20;;;;;;;5.85;4.93;;;;;;;;;;10322629;28;20042;-57
2023/05/29 12:40:22;;;;;;;9.05;5.15;;;;;;;;;;10302441;28;20105;-49
2023/05/29 12:45:26;;;;;;;7.45;4.53;;;;;;;;;;10307125;28;20410;-50
2023/05/29 12:50:32;;;;;;;7.85;4.82;;;;;;;;;;10306951;28;20378;-52
2023/05/29 12:55:38;;;;;;;8.88;5.18;;;;;;;;;;10310812;28;20033;-61
2023/05/29 13:00:41;;;;;;;9.88;5.45;;;;;;;;;;10315800;28;20038;-56
2023/05/29 13:05:42;;;;;;;8.55;4.70;;;;;;;;;;10312375;28;20039;-52
2023/05/29 13:10:45;;;;;;;8.80;5.28;;;;;;;;;;10397427;28;20041;-51
2023/05/29 13:15:46;;;;;;;7.38;5.18;;;;;;;;;;10489091;28;20044;-51
2023/05/29 13:20:47;;;;;;;9.40;5.97;;;;;;;;;;10493169;28;20035;-52
2023/05/29 13:25:49;;;;;;;9.50;5.57;;;;;;;;;;10491817;28;20028;-52
2023/05/29 13:30:49;;;;;;;9.75;5.25;;;;;;;;;;10495088;28;20038;-51
2023/05/29 13:35:50;;;;;;;9.80;5.18;;;;;;;;;;10496676;28;20037;-50
2023/05/29 13:40:50;;;;;;;8.85;5.30;;;;;;;;;;10475144;28;20028;-57
2023/05/29 13:45:51;;;;;;;6.13;4.70;;;;;;;;;;10488962;28;20495;-51
2023/05/29 13:50:52;;;;;;;10.30;5.25;;;;;;;;;;10490040;28;20510;-57
2023/05/29 13:55:52;;;;;;;6.80;4.93;;;;;;;;;;10487710;28;20376;-54
2023/05/29 14:00:53;;;;;;;8.13;5.35;;;;;;;;;;10489625;28;20391;-59
2023/05/29 14:05:53;;;;;;;8.52;4.75;;;;;;;;;;10488248;28;20464;-56
2023/05/29 14:10:54;;;;;;;10.43;5.28;;;;;;;;;;10476034;28;20492;-50
2023/05/29 14:15:56;;;;;;;11.18;5.03;;;;;;;;;;10473860;28;20091;-53
2023/05/29 14:20:57;;;;;;;7.43;4.93;;;;;;;;;;10474352;28;20047;-57
2023/05/29 14:25:57;;;;;;;7.57;4.93;;;;;;;;;;10490016;28;20029;-56
2023/05/29 14:30:58;;;;;;;7.90;5.13;;;;;;;;;;10473326;28;20052;-53
2023/05/29 14:35:59;;;;;;;12.00;5.68;;;;;;;;;;10493267;28;20501;-48
2023/05/29 14:40:59;;;;;;;8.15;4.60;;;;;;;;;;10488901;28;20408;-51
2023/05/29 14:46:00;;;;;;;19.92;5.25;;;;;;;;;;10472799;28;20040;-53
2023/05/29 14:51:01;;;;;;;13.88;5.57;;;;;;;;;;10490082;28;20024;-51
2023/05/29 14:56:01;;;;;;;11.77;5.13;;;;;;;;;;10489822;28;20031;-62
2023/05/29 15:01:02;;;;;;;7.72;4.70;;;;;;;;;;10490088;28;20365;-61
2023/05/29 15:06:03;;;;;;;8.75;5.43;;;;;;;;;;10490008;28;20173;-60
2023/05/29 15:11:04;;;;;;;8.52;5.18;;;;;;;;;;10489716;28;20043;-59
2023/05/29 15:16:05;;;;;;;9.10;5.38;;;;;;;;;;10488095;28;20090;-57
2023/05/29 15:21:06;;;;;;;11.65;5.18;;;;;;;;;;10489682;28;20020;-62
2023/05/29 15:26:06;;;;;;;7.72;4.78;;;;;;;;;;10482811;28;20041;-61
2023/05/29 15:31:07;;;;;;;7.45;4.57;;;;;;;;;;10488726;28;20028;-61
2023/05/29 15:36:08;;;;;;;11.90;5.13;;;;;;;;;;10485797;28;20029;-62
2023/05/29 15:41:08;;;;;;;7.70;4.80;;;;;;;;;;10486265;28;20333;-59
2023/05/29 15:46:09;;;;;;;6.15;4.30;;;;;;;;;;10483392;28;20056;-63
2023/05/29 15:51:10;;;;;;;7.50;4.72;;;;;;;;;;10486494;28;20031;-60
2023/05/29 15:56:11;;;;;;;7.95;4.43;;;;;;;;;;10486687;28;20036;-63
2023/05/29 16:01:12;;;;;;;11.32;4.97;;;;;;;;;;10486572;28;20360;-62
2023/05/29 16:06:12;;;;;;;8.38;4.93;;;;;;;;;;10486894;28;20021;-62
2023/05/29 16:11:13;;;;;;;9.95;4.53;;;;;;;;;;10487107;28;20392;-61
2023/05/29 16:16:16;;;;;;;6.10;4.35;;;;;;;;;;10485957;28;20506;-63
2023/05/29 16:21:17;;;;;;;8.45;5.05;;;;;;;;;;10486747;28;20068;-62
2023/05/29 16:26:17;;;;;;;7.53;4.30;;;;;;;;;;10485575;28;20016;-62
2023/05/29 16:31:18;;;;;;;9.40;4.53;;;;;;;;;;10489128;28;20032;-62
2023/05/29 16:36:19;;;;;;;6.80;4.43;;;;;;;;;;10489989;28;20063;-57
2023/05/29 16:41:20;;;;;;;12.10;4.70;;;;;;;;;;10490481;28;20047;-62
2023/05/29 16:46:21;;;;;;;6.05;4.03;;;;;;;;;;10488488;28;20110;-63
2023/05/29 16:51:22;;;;;;;9.88;4.78;;;;;;;;;;10467352;28;20032;-62
2023/05/29 16:56:23;;;;;;;8.45;4.72;;;;;;;;;;10495382;28;20253;-62
2023/05/29 17:01:23;;;;;;;7.40;4.45;;;;;;;;;;10462424;28;20476;-62
2023/05/29 17:06:24;;;;;;;8.65;4.25;;;;;;;;;;10489214;28;20389;-62
2023/05/29 17:11:25;;;;;;;11.05;4.57;;;;;;;;;;10494233;28;20025;-61
2023/05/29 17:16:25;;;;;;;6.32;4.05;;;;;;;;;;10491341;28;20471;-62
2023/05/29 17:21:26;;;;;;;6.38;4.05;;;;;;;;;;10489271;28;20495;-60
2023/05/29 17:26:27;;;;;;;5.65;4.03;;;;;;;;;;10488977;28;20037;-52
2023/05/29 17:31:27;;;;;;;6.40;3.65;;;;;;;;;;10490880;28;20024;-51
2023/05/29 17:36:28;;;;;;;6.28;4.20;;;;;;;;;;10490859;28;20025;-49
2023/05/29 17:41:28;;;;;;;11.65;4.13;;;;;;;;;;10490473;28;20033;-49
2023/05/29 17:46:29;;;;;;;7.95;4.45;;;;;;;;;;10481420;28;20056;-51
2023/05/29 17:51:30;;;;;;;8.05;4.20;;;;;;;;;;10475652;28;20028;-51
2023/05/29 17:56:33;;;;;;;5.20;3.90;;;;;;;;;;10475437;28;20036;-51
2023/05/29 18:01:33;;;;;;;6.35;4.32;;;;;;;;;;10492605;28;20060;-49
2023/05/29 18:06:34;;;;;;;5.53;3.75;;;;;;;;;;10503177;28;20036;-49
2023/05/29 18:11:34;;;;;;;5.93;3.90;;;;;;;;;;10492502;28;20373;-48
2023/05/29 18:16:36;;;;;;;6.25;3.97;;;;;;;;;;10493353;28;20050;-59
2023/05/29 18:21:37;;;;;;;6.60;4.13;;;;;;;;;;10484167;28;20040;-61
2023/05/29 18:26:37;;;;;;;6.80;4.13;;;;;;;;;;10487924;28;20025;-61
2023/05/29 18:31:38;;;;;;;5.55;3.92;;;;;;;;;;10490727;28;20409;-56
2023/05/29 18:36:39;;;;;;;7.57;3.85;;;;;;;;;;10489791;28;20025;-60
2023/05/29 18:41:41;;;;;;;4.20;3.67;;;;;;;;;;10478572;28;20040;-61
2023/05/29 18:46:41;;;;;;;7.18;3.80;;;;;;;;;;10487711;28;20037;-61
2023/05/29 18:51:42;;;;;;;8.13;3.60;;;;;;;;;;10481654;28;20396;-62
2023/05/29 18:56:44;;;;;;;5.55;3.50;;;;;;;;;;10483794;28;20029;-61
2023/05/29 19:01:45;;;;;;;5.88;3.65;;;;;;;;;;10477790;28;20215;-60
2023/05/29 19:06:46;;;;;;;6.15;3.80;;;;;;;;;;10487229;28;20495;-62
2023/05/29 19:11:46;;;;;;;8.40;3.72;;;;;;;;;;10487123;28;20031;-60
2023/05/29 19:16:47;;;;;;;7.03;3.63;;;;;;;;;;10488175;28;20024;-62
2023/05/29 19:21:50;;;;;;;7.50;3.70;;;;;;;;;;10481633;28;20032;-62
2023/05/29 19:26:50;;;;;;;5.18;3.67;;;;;;;;;;10486090;28;20139;-61
2023/05/29 19:31:51;;;;;;;7.07;3.80;;;;;;;;;;10486401;28;20062;-57
2023/05/29 19:36:51;;;;;;;9.13;3.80;;;;;;;;;;10485667;28;20488;-59
2023/05/29 19:41:52;;;;;;;6.85;4.57;;;;;;;;;;10486418;28;20031;-61
2023/05/29 19:46:53;;;;;;;9.52;4.55;;;;;;;;;;10438934;23;20049;-64
2023/05/29 19:51:57;;;;;;;13.82;5.57;;;;;;;;;;10403845;28;20033;-63
2023/05/29 19:56:58;;;;;;;33.33;9.95;;;;;;;;;;10405339;28;20056;-63
2023/05/29 20:01:58;;;;;;;21.52;6.40;;;;;;;;;;10406882;28;20056;-63
2023/05/29 20:06:59;;;;;;;41.45;8.98;;;;;;;;;;10413769;28;20033;-63
2023/05/29 20:12:01;;;;;;;37.70;8.60;;;;;;;;;;10412201;28;20048;-63
2023/05/29 20:17:02;;;;;;;39.15;9.90;;;;;;;;;;10413703;28;20112;-63
2023/05/29 20:22:03;;;;;;;32.88;8.55;;;;;;;;;;10413147;28;20481;-63
2023/05/29 20:27:06;;;;;;;39.58;9.45;;;;;;;;;;10407688;28;20034;-63
2023/05/29 20:32:06;;;;;;;27.40;7.50;;;;;;;;;;10408090;28;20482;-62
2023/05/29 20:37:07;;;;;;;27.60;7.47;;;;;;;;;;10408347;28;20037;-61
2023/05/29 20:42:11;;;;;;;24.73;7.28;;;;;;;;;;10397033;28;20033;-61
2023/05/29 20:47:11;;;;;;;20.83;6.32;;;;;;;;;;10403356;28;20049;-61
2023/05/29 20:52:12;;;;;;;20.02;6.43;;;;;;;;;;10412058;28;20033;-61
2023/05/29 20:57:14;;;;;;;15.82;6.30;;;;;;;;;;10410665;28;20025;-61
2023/05/29 21:02:15;;;;;;;19.48;6.05;;;;;;;;;;10410136;28;20029;-62
2023/05/29 21:07:16;;;;;;;18.92;6.47;;;;;;;;;;10409728;28;20033;-61
2023/05/29 21:12:17;;;;;;;15.73;6.40;;;;;;;;;;10410485;28;20034;-59
2023/05/29 21:17:17;;;;;;;18.33;5.78;;;;;;;;;;10406469;28;20385;-60
2023/05/29 21:22:19;;;;;;;20.67;5.75;;;;;;;;;;10407033;28;20115;-60
2023/05/29 21:27:19;;;;;;;14.82;5.82;;;;;;;;;;10407950;28;20385;-61
2023/05/29 21:32:20;;;;;;;17.33;6.68;;;;;;;;;;10411793;28;20044;-60
2023/05/29 21:37:22;;;;;;;20.45;6.50;;;;;;;;;;10409946;28;20026;-60
2023/05/29 21:42:23;;;;;;;18.90;6.03;;;;;;;;;;10404745;28;20026;-60
2023/05/29 21:47:24;;;;;;;13.50;6.20;;;;;;;;;;10404971;28;20049;-60
2023/05/29 21:52:25;;;;;;;32.90;6.15;;;;;;;;;;10409794;28;20017;-60
2023/05/29 21:57:25;;;;;;;11.55;5.32;;;;;;;;;;10409226;28;20381;-59
2023/05/29 22:02:26;;;;;;;12.98;5.38;;;;;;;;;;10409464;28;20021;-60
2023/05/29 22:07:26;;;;;;;13.77;5.65;;;;;;;;;;10409219;28;20172;-59
2023/05/29 22:12:27;;;;;;;13.05;5.72;;;;;;;;;;10408456;28;20018;-59
2023/05/29 22:17:27;;;;;;;15.57;5.05;;;;;;;;;;10408539;28;20029;-60
2023/05/29 22:22:28;;;;;;;10.45;5.25;;;;;;;;;;10408759;28;20036;-60
2023/05/29 22:27:29;;;;;;;17.02;5.47;;;;;;;;;;10407993;28;20095;-60
2023/05/29 22:32:29;;;;;;;10.70;5.20;;;;;;;;;;10413578;28;20481;-59
2023/05/29 22:37:30;;;;;;;9.23;5.15;;;;;;;;;;10406572;28;20381;-59
2023/05/29 22:42:31;;;;;;;13.13;5.40;;;;;;;;;;10408103;28;20484;-60
2023/05/29 22:47:31;;;;;;;8.32;4.68;;;;;;;;;;10408702;28;20102;-60
2023/05/29 22:52:33;;;;;;;10.18;4.82;;;;;;;;;;10408574;28;20025;-59
2023/05/29 22:57:34;;;;;;;12.60;5.30;;;;;;;;;;10409190;28;20024;-59
2023/05/29 23:02:35;;;;;;;9.43;4.90;;;;;;;;;;10408222;28;20033;-59
2023/05/29 23:07:37;;;;;;;7.20;4.78;;;;;;;;;;10408224;28;20265;-59
2023/05/29 23:12:37;;;;;;;8.93;4.72;;;;;;;;;;10408237;28;20025;-59
2023/05/29 23:17:38;;;;;;;10.30;3.97;;;;;;;;;;10406800;28;20026;-61
2023/05/29 23:22:38;;;;;;;10.07;5.00;;;;;;;;;;10372784;28;20025;-60
2023/05/29 23:27:40;;;;;;;10.18;5.18;;;;;;;;;;10398836;28;20040;-60
2023/05/29 23:32:40;;;;;;;10.25;5.05;;;;;;;;;;10408040;28;20060;-60
2023/05/29 23:37:41;;;;;;;6.90;4.55;;;;;;;;;;10398433;28;20032;-60
2023/05/29 23:42:41;;;;;;;6.90;4.60;;;;;;;;;;10416551;28;20037;-59
2023/05/29 23:47:42;;;;;;;11.82;4.68;;;;;;;;;;10406768;28;20038;-61
2023/05/29 23:52:43;;;;;;;9.55;4.90;;;;;;;;;;10400391;28;20485;-59
2023/05/29 23:57:45;;;;;;;10.70;4.72;;;;;;;;;;10416104;28;20087;-60
